Flight Track Log - Related Links

Times and Time Zones

All times are in EDT time to prevent confusion due to time zone crossing. See the ABX502 flight status page for this flight to view local times or setup timezone preferences in your user account.

Time Position Orientation Groundspeed Altitude Reporting Facility
EDT Latitude Longitude Course Direction KTS MPH feet Rate Location/Type
Fri 05:51:10 AM 39.0500 -84.6833 270° West 149 171 1,500  Level Cincinnati TRACON
Fri 05:52:16 AM 39.0500 -84.7667 270° West 212 244 3,200 1,800 Climbing Cincinnati TRACON
Fri 05:53:10 AM 39.0167 -84.8167 229° Southwest 247 284 5,100 2,263 Climbing Cincinnati TRACON
Fri 05:54:10 AM 38.9500 -84.8500 201° Southwest 288 331 7,500 1,781 Climbing Cincinnati TRACON
Fri 05:55:18 AM 38.8656 -84.8711 191° South 278 320 8,900 1,581 Climbing Indianapolis Center
Fri 05:56:19 AM 38.7842 -84.8933 192° South 294 338 10,900 1,884 Climbing Indianapolis Center
Fri 05:57:19 AM 38.7067 -84.9631 215° Southwest 339 390 12,700 2,132 Climbing Indianapolis Center
Fri 05:58:20 AM 38.6231 -85.0450 217° Southwest 367 422 15,200 2,331 Climbing Indianapolis Center
Fri 05:59:20 AM 38.5397 -85.1306 219° Southwest 380 437 17,400 2,380 Climbing Indianapolis Center
Fri 06:00:21 AM 38.4442 -85.2317 220° Southwest 390 449 20,000 2,331 Climbing Indianapolis Center
Fri 06:01:21 AM 38.3547 -85.3217 218° Southwest 402 463 22,100 2,033 Climbing Indianapolis Center
Fri 06:02:22 AM 38.2639 -85.4156 219° Southwest 413 475 24,100 1,785 Climbing Indianapolis Center
Fri 06:03:22 AM 38.1672 -85.5136 219° Southwest 430 495 25,700 1,587 Climbing Indianapolis Center
Fri 06:04:23 AM 38.0817 -85.6247 226° Southwest 447 514 27,300 1,587 Climbing Indianapolis Center
Fri 06:05:23 AM 38.0183 -85.7592 239° Southwest 445 512 28,900 1,339 Climbing Indianapolis Center
Fri 06:06:24 AM 37.9522 -85.8969 239° Southwest 451 519 30,000 1,488 Climbing Indianapolis Center
Fri 06:07:24 AM 37.8847 -86.0369 239° Southwest 461 531 31,900 1,686 Climbing Indianapolis Center
Fri 06:08:25 AM 37.8192 -86.1753 239° Southwest 456 525 33,400 1,339 Climbing Indianapolis Center
Fri 06:09:25 AM 37.7603 -86.2975 239° Southwest 457 526 34,600 1,240 Climbing Indianapolis Center
Fri 06:10:26 AM 37.6942 -86.4347 239° Southwest 455 524 35,900 1,289 Climbing Indianapolis Center
Fri 06:11:26 AM 37.6208 -86.5875 239° Southwest 454 522 37,200 1,041 Climbing Indianapolis Center
Fri 06:12:27 AM 37.5547 -86.7211 238° Southwest 449 517 38,000 393 Climbing Indianapolis Center
Fri 06:13:28 AM 37.4981 -86.8378 239° Southwest 444 511 38,000  Level Indianapolis Center
Fri 06:14:28 AM 37.4350 -86.9669 238° Southwest 434 499 38,000  Level Indianapolis Center
Fri 06:15:29 AM 37.3717 -87.0972 239° Southwest 433 498 38,000  Level Indianapolis Center
Fri 06:16:30 AM 37.3078 -87.2275 238° Southwest 435 501 38,000  Level Indianapolis Center
Fri 06:17:30 AM 37.2439 -87.3592 239° Southwest 438 504 38,000  Level Indianapolis Center
Fri 06:18:31 AM 37.1800 -87.4883 238° Southwest 436 502 38,000  Level Indianapolis Center
Fri 06:19:31 AM 37.1136 -87.6189 238° Southwest 440 506 38,000  Level Indianapolis Center
Fri 06:20:20 AM 37.0603 -87.7289 239° Southwest 436 502 38,000  Level Memphis Center
Fri 06:21:20 AM 36.9983 -87.8556 239° Southwest 436 502 38,000  Level Memphis Center
Fri 06:22:20 AM 36.9319 -87.9847 237° Southwest 436 502 38,000  Level Memphis Center
Fri 06:23:20 AM 36.8597 -88.1244 237° Southwest 436 502 38,000  Level Memphis Center
Fri 06:24:20 AM 36.8011 -88.2400 238° Southwest 436 502 38,000  Level Memphis Center
Fri 06:25:20 AM 36.7347 -88.3686 237° Southwest 441 507 38,000  Level Memphis Center
Fri 06:26:20 AM 36.6719 -88.4944 238° Southwest 441 507 38,000  Level Memphis Center
Fri 06:27:20 AM 36.6031 -88.6253 237° Southwest 441 507 38,000  Level Memphis Center
Fri 06:28:20 AM 36.5358 -88.7558 237° Southwest 446 513 38,000  Level Memphis Center
Fri 06:29:20 AM 36.4708 -88.8861 238° Southwest 446 513 38,000 200 Level Memphis Center
Fri 06:30:20 AM 36.4036 -89.0111 236° Southwest 446 513 38,400 550 Climbing Memphis Center
Fri 06:31:20 AM 36.3506 -89.1381 243° Southwest 438 504 39,100 600 Climbing Memphis Center
Fri 06:32:20 AM 36.2958 -89.2858 245° Southwest 438 504 39,600 450 Climbing Memphis Center
Fri 06:33:20 AM 36.2428 -89.4408 247° West 451 519 40,000 200 Climbing Memphis Center
Fri 06:34:20 AM 36.1958 -89.5803 247° West 446 513 40,000  Level Memphis Center
Fri 06:35:20 AM 36.1486 -89.7144 246° West 439 505 40,000  Level Memphis Center
Fri 06:36:20 AM 36.1011 -89.8458 246° West 427 491 40,000  Level Memphis Center
Fri 06:37:20 AM 36.0539 -89.9797 246° West 427 491 40,000  Level Memphis Center
Fri 06:38:20 AM 36.0061 -90.1133 246° West 427 491 40,000  Level Memphis Center
Fri 06:39:20 AM 35.9564 -90.2417 244° Southwest 427 491 40,000  Level Memphis Center
Fri 06:40:20 AM 35.9064 -90.3725 245° Southwest 422 486 40,000  Level Memphis Center
Fri 06:41:20 AM 35.8561 -90.5056 245° Southwest 422 486 40,000  Level Memphis Center
Fri 06:42:20 AM 35.8081 -90.6333 245° Southwest 422 486 40,000  Level Memphis Center
Fri 06:43:20 AM 35.7597 -90.7586 245° Southwest 417 480 40,000  Level Memphis Center
Fri 06:44:20 AM 35.7133 -90.8864 246° West 417 480 40,000  Level Memphis Center
Fri 06:45:20 AM 35.6733 -91.0011 247° West 417 480 40,000  Level Memphis Center
Fri 06:46:20 AM 35.6203 -91.1386 245° Southwest 410 472 40,000  Level Memphis Center
Fri 06:47:20 AM 35.5736 -91.2606 245° Southwest 410 472 40,000 -100 Level Memphis Center
Fri 06:48:20 AM 35.5267 -91.3825 245° Southwest 400 460 39,800 -650 Descending Memphis Center
Fri 06:49:20 AM 35.4861 -91.4867 244° Southwest 394 453 38,700 -950 Descending Memphis Center
Fri 06:50:20 AM 35.4392 -91.6058 244° Southwest 394 453 37,900 -350 Descending Memphis Center
Fri 06:51:20 AM 35.3900 -91.7322 245° Southwest 400 460 38,000 50 Climbing Memphis Center
Fri 06:52:20 AM 35.3425 -91.8589 245° Southwest 400 460 38,000  Level Memphis Center
Fri 06:53:20 AM 35.2886 -91.9953 244° Southwest 405 466 38,000  Level Memphis Center
Fri 06:54:20 AM 35.2369 -92.1239 244° Southwest 410 472 38,000  Level Memphis Center
Fri 06:55:20 AM 35.1911 -92.2500 246° West 410 472 38,000  Level Memphis Center
Fri 06:56:20 AM 35.1414 -92.3758 244° Southwest 415 478 38,000  Level Memphis Center
Fri 06:57:20 AM 35.0911 -92.5042 244° Southwest 421 484 38,000  Level Memphis Center
Fri 06:58:20 AM 35.0389 -92.6294 243° Southwest 421 484 38,000  Level Memphis Center
Fri 06:59:20 AM 34.9883 -92.7600 245° Southwest 421 484 38,000  Level Memphis Center
Fri 07:00:20 AM 34.9381 -92.8878 244° Southwest 421 484 38,000  Level Memphis Center
Fri 07:01:20 AM 34.8872 -93.0178 245° Southwest 421 484 38,000  Level Memphis Center
Fri 07:02:20 AM 34.8344 -93.1453 243° Southwest 421 484 38,000  Level Memphis Center
Fri 07:03:20 AM 34.7814 -93.2775 244° Southwest 421 484 38,000  Level Memphis Center
Fri 07:04:20 AM 34.7322 -93.4072 245° Southwest 421 484 38,000  Level Memphis Center
Fri 07:05:20 AM 34.6767 -93.5417 243° Southwest 427 491 38,000  Level Memphis Center
Fri 07:07:26 AM 34.5703 -93.8122 245° Southwest 427 491 38,000  Level Fort Worth Center
Fri 07:08:26 AM 34.5133 -93.9408 242° Southwest 432 497 38,000  Level Fort Worth Center
Fri 07:09:26 AM 34.4564 -94.0689 242° Southwest 438 504 38,000  Level Fort Worth Center
Fri 07:10:26 AM 34.3994 -94.1994 242° Southwest 438 504 38,000  Level Fort Worth Center
Fri 07:11:26 AM 34.3419 -94.3247 241° Southwest 438 504 38,000  Level Fort Worth Center
Fri 07:12:26 AM 34.2867 -94.4550 243° Southwest 438 504 38,000  Level Fort Worth Center
Fri 07:13:26 AM 34.2292 -94.5850 242° Southwest 438 504 38,000  Level Fort Worth Center
Fri 07:14:26 AM 34.1733 -94.7075 241° Southwest 438 504 38,000  Level Fort Worth Center
Fri 07:15:26 AM 34.1136 -94.8397 241° Southwest 438 504 38,000  Level Fort Worth Center
Fri 07:16:26 AM 34.0578 -94.9667 242° Southwest 445 512 38,000 -100 Level Fort Worth Center
Fri 07:17:26 AM 33.9975 -95.0936 240° Southwest 439 505 37,800 -1,450 Descending Fort Worth Center
Fri 07:18:26 AM 33.9394 -95.2228 242° Southwest 439 505 35,100 -3,025 Descending Fort Worth Center
Fri 07:19:27 AM 33.8811 -95.3544 242° Southwest 439 505 31,700 -3,050 Descending Fort Worth Center
Fri 07:20:26 AM 33.8206 -95.4833 241° Southwest 439 505 29,000 -2,723 Descending Fort Worth Center
Fri 07:21:26 AM 33.7597 -95.6122 240° Southwest 440 506 26,300 -2,650 Descending Fort Worth Center
Fri 07:22:26 AM 33.7072 -95.7356 243° Southwest 433 498 23,700 -2,550 Descending Fort Worth Center
Fri 07:23:26 AM 33.6503 -95.8514 239° Southwest 422 486 21,200 -2,300 Descending Fort Worth Center
Fri 07:24:26 AM 33.6056 -95.9544 243° Southwest 405 466 19,100 -2,300 Descending Fort Worth Center
Fri 07:25:26 AM 33.5525 -96.0700 241° Southwest 378 435 16,600 -2,400 Descending Fort Worth Center
Fri 07:26:26 AM 33.5056 -96.1728 241° Southwest 358 412 14,300 -2,150 Descending Fort Worth Center
Fri 07:27:26 AM 33.4586 -96.2731 241° Southwest 353 406 12,300 -1,600 Descending Fort Worth Center
Fri 07:28:26 AM 33.4136 -96.3683 241° Southwest 348 400 11,100 -1,100 Descending Fort Worth Center
Fri 07:29:26 AM 33.3639 -96.4408 231° Southwest 313 360 10,100 -1,224 Descending Fort Worth Center
Fri 07:30:04 AM 33.3333 -96.4833 229° Southwest 278 320 9,100 -1,516 Descending Dallas / Fort Worth TRACON
Fri 07:31:01 AM 33.2833 -96.5500 228° Southwest 272 313 7,700 -1,350 Descending Dallas / Fort Worth TRACON
Fri 07:32:04 AM 33.2667 -96.6333 257° West 266 306 6,400 -1,256 Descending Dallas / Fort Worth TRACON
Fri 07:33:10 AM 33.2333 -96.7167 244° Southwest 257 296 5,000 -768 Descending Dallas / Fort Worth TRACON
Fri 07:34:09 AM 33.2167 -96.8000 257° West 260 299 4,800 -526 Descending Dallas / Fort Worth TRACON
Fri 07:35:04 AM 33.1833 -96.8667 239° Southwest 245 282 4,000 -730 Descending Dallas / Fort Worth TRACON
Fri 07:36:04 AM 33.1333 -96.9167 220° Southwest 236 272 3,400 -504 Descending Dallas / Fort Worth TRACON
Fri 07:37:03 AM 33.1000 -96.9833 239° Southwest 207 238 3,000 -190 Descending Dallas / Fort Worth TRACON
Fri 07:38:10 AM 33.0667 -97.0333 232° Southwest 167 192 3,000 -194 Level Dallas / Fort Worth TRACON
Fri 07:39:07 AM 33.0333 -97.0500 203° Southwest 156 180 2,600 -600 Descending Dallas / Fort Worth TRACON
Fri 07:40:10 AM 32.9833 -97.0500 180° South 150 173 1,800 -700 Descending Dallas / Fort Worth TRACON
Fri 07:41:07 AM 32.9500 -97.0500 180° South 126 145 1,200 -632 Descending Dallas / Fort Worth TRACON
Fri 07:43:00 AM 32.8968 -97.0380 206° Southwest  Level Estimated
Fri 07:50:00 AM 32.8968 -97.0380 206° Southwest  Level Estimated

Login

Don't have an account? Register now (free) for customized features, flight alerts, and more!